<?xml version="1.0" encoding="UTF-8" standalone="no" ?>
<gpx xmlns="http://www.topografix.com/GPX/1/1" xmlns:xsi="http://www.w3.org/2001/XMLSchema-instance" xsi:schemaLocation="http://www.topografix.com/GPX/1/1 http://www.topografix.com/GPX/1/1/gpx.xsd" version="1.1" creator="VisuGPX - https://www.visugpx.com">
  <metadata>
    <name>Arêches-Pointe du Dard</name>
    <desc><![CDATA[Carte IGN TOP25 : 3532OT - Massif du Beaufortain - Moûtiers - La Plagne.
Niveau D.
Départ d'Arêches-Le Chornais.

]]></desc>
  </metadata>
  <trk>
    <name><![CDATA[Arêches-Pointe du Dard]]></name>
    <cmt><![CDATA[Carte IGN TOP25 : 3532OT - Massif du Beaufortain - Moûtiers - La Plagne
Départ d'Arêches-Le Chornais.]]></cmt>
    <trkseg>
      <trkpt lat="45.6648" lon="6.54946">
        <ele>1317</ele>
        <time>2022-02-12T16:10:32.262Z</time>
      </trkpt>
      <trkpt lat="45.66394" lon="6.54944">
        <ele>1319</ele>
        <time>2022-02-12T16:13:28.833Z</time>
      </trkpt>
      <trkpt lat="45.66388" lon="6.54952">
        <ele>1321</ele>
        <time>2022-02-12T16:13:44.578Z</time>
      </trkpt>
      <trkpt lat="45.66416" lon="6.54987">
        <ele>1326</ele>
        <time>2022-02-12T16:15:09.097Z</time>
      </trkpt>
      <trkpt lat="45.66413" lon="6.55004">
        <ele>1330</ele>
        <time>2022-02-12T16:15:36.419Z</time>
      </trkpt>
      <trkpt lat="45.66346" lon="6.55068">
        <ele>1346</ele>
        <time>2022-02-12T16:19:38.507Z</time>
      </trkpt>
      <trkpt lat="45.66336" lon="6.5509">
        <ele>1353</ele>
        <time>2022-02-12T16:20:33.381Z</time>
      </trkpt>
      <trkpt lat="45.66311" lon="6.55119">
        <ele>1365</ele>
        <time>2022-02-12T16:21:28.390Z</time>
      </trkpt>
      <trkpt lat="45.66233" lon="6.55114">
        <ele>1365</ele>
        <time>2022-02-12T16:23:16.399Z</time>
      </trkpt>
      <trkpt lat="45.66208" lon="6.55092">
        <ele>1365</ele>
        <time>2022-02-12T16:23:56.462Z</time>
      </trkpt>
      <trkpt lat="45.66121" lon="6.55038">
        <ele>1363</ele>
        <time>2022-02-12T16:26:06.804Z</time>
      </trkpt>
      <trkpt lat="45.66115" lon="6.55019">
        <ele>1363</ele>
        <time>2022-02-12T16:26:27.715Z</time>
      </trkpt>
      <trkpt lat="45.6611" lon="6.54961">
        <ele>1363</ele>
        <time>2022-02-12T16:27:24.654Z</time>
      </trkpt>
      <trkpt lat="45.66096" lon="6.54934">
        <ele>1363</ele>
        <time>2022-02-12T16:27:56.172Z</time>
      </trkpt>
      <trkpt lat="45.66097" lon="6.54904">
        <ele>1362</ele>
        <time>2022-02-12T16:28:27.103Z</time>
      </trkpt>
      <trkpt lat="45.66086" lon="6.54888">
        <ele>1363</ele>
        <time>2022-02-12T16:28:50.592Z</time>
      </trkpt>
      <trkpt lat="45.66092" lon="6.54867">
        <ele>1365</ele>
        <time>2022-02-12T16:29:26.204Z</time>
      </trkpt>
      <trkpt lat="45.66087" lon="6.54855">
        <ele>1366</ele>
        <time>2022-02-12T16:29:56.731Z</time>
      </trkpt>
      <trkpt lat="45.6607" lon="6.54858">
        <ele>1373</ele>
        <time>2022-02-12T16:30:46.210Z</time>
      </trkpt>
      <trkpt lat="45.66059" lon="6.5484">
        <ele>1380</ele>
        <time>2022-02-12T16:31:39.796Z</time>
      </trkpt>
      <trkpt lat="45.66058" lon="6.54802">
        <ele>1383</ele>
        <time>2022-02-12T16:33:33.575Z</time>
      </trkpt>
      <trkpt lat="45.66016" lon="6.54833">
        <ele>1408</ele>
        <time>2022-02-12T16:38:45.615Z</time>
      </trkpt>
      <trkpt lat="45.65994" lon="6.54839">
        <ele>1424</ele>
        <time>2022-02-12T16:40:19.079Z</time>
      </trkpt>
      <trkpt lat="45.65995" lon="6.54828">
        <ele>1425</ele>
        <time>2022-02-12T16:40:46.732Z</time>
      </trkpt>
      <trkpt lat="45.65986" lon="6.54824">
        <ele>1426</ele>
        <time>2022-02-12T16:41:05.269Z</time>
      </trkpt>
      <trkpt lat="45.65992" lon="6.54819">
        <ele>1425</ele>
        <time>2022-02-12T16:41:15.057Z</time>
      </trkpt>
      <trkpt lat="45.65986" lon="6.54814">
        <ele>1425</ele>
        <time>2022-02-12T16:41:25.684Z</time>
      </trkpt>
      <trkpt lat="45.66" lon="6.54792">
        <ele>1420</ele>
        <time>2022-02-12T16:41:56.135Z</time>
      </trkpt>
      <trkpt lat="45.66019" lon="6.54774">
        <ele>1420</ele>
        <time>2022-02-12T16:42:38.006Z</time>
      </trkpt>
      <trkpt lat="45.66003" lon="6.54767">
        <ele>1420</ele>
        <time>2022-02-12T16:43:07.211Z</time>
      </trkpt>
      <trkpt lat="45.66" lon="6.54745">
        <ele>1427</ele>
        <time>2022-02-12T16:43:55.208Z</time>
      </trkpt>
      <trkpt lat="45.65988" lon="6.54761">
        <ele>1428</ele>
        <time>2022-02-12T16:44:58.907Z</time>
      </trkpt>
      <trkpt lat="45.65965" lon="6.54748">
        <ele>1440</ele>
        <time>2022-02-12T16:46:10.790Z</time>
      </trkpt>
      <trkpt lat="45.65963" lon="6.54736">
        <ele>1440</ele>
        <time>2022-02-12T16:46:39.921Z</time>
      </trkpt>
      <trkpt lat="45.65971" lon="6.54723">
        <ele>1441</ele>
        <time>2022-02-12T16:47:18.516Z</time>
      </trkpt>
      <trkpt lat="45.65964" lon="6.54717">
        <ele>1442</ele>
        <time>2022-02-12T16:47:38.619Z</time>
      </trkpt>
      <trkpt lat="45.65946" lon="6.54719">
        <ele>1449</ele>
        <time>2022-02-12T16:48:27.317Z</time>
      </trkpt>
      <trkpt lat="45.65957" lon="6.54696">
        <ele>1453</ele>
        <time>2022-02-12T16:49:45.842Z</time>
      </trkpt>
      <trkpt lat="45.65949" lon="6.54695">
        <ele>1454</ele>
        <time>2022-02-12T16:50:13.433Z</time>
      </trkpt>
      <trkpt lat="45.65946" lon="6.54686">
        <ele>1459</ele>
        <time>2022-02-12T16:50:39.015Z</time>
      </trkpt>
      <trkpt lat="45.65933" lon="6.54688">
        <ele>1466</ele>
        <time>2022-02-12T16:51:34.877Z</time>
      </trkpt>
      <trkpt lat="45.65935" lon="6.54675">
        <ele>1467</ele>
        <time>2022-02-12T16:52:12.569Z</time>
      </trkpt>
      <trkpt lat="45.65923" lon="6.5468">
        <ele>1473</ele>
        <time>2022-02-12T16:52:57.164Z</time>
      </trkpt>
      <trkpt lat="45.65911" lon="6.54666">
        <ele>1477</ele>
        <time>2022-02-12T16:53:36.863Z</time>
      </trkpt>
      <trkpt lat="45.6592" lon="6.54652">
        <ele>1479</ele>
        <time>2022-02-12T16:54:03.375Z</time>
      </trkpt>
      <trkpt lat="45.65905" lon="6.54648">
        <ele>1480</ele>
        <time>2022-02-12T16:54:27.464Z</time>
      </trkpt>
      <trkpt lat="45.65912" lon="6.5463">
        <ele>1482</ele>
        <time>2022-02-12T16:54:49.556Z</time>
      </trkpt>
      <trkpt lat="45.65905" lon="6.54602">
        <ele>1482</ele>
        <time>2022-02-12T16:55:28.598Z</time>
      </trkpt>
      <trkpt lat="45.65923" lon="6.54611">
        <ele>1483</ele>
        <time>2022-02-12T16:56:00.746Z</time>
      </trkpt>
      <trkpt lat="45.65938" lon="6.54607">
        <ele>1489</ele>
        <time>2022-02-12T16:56:44.828Z</time>
      </trkpt>
      <trkpt lat="45.65924" lon="6.5459">
        <ele>1490</ele>
        <time>2022-02-12T16:57:50.447Z</time>
      </trkpt>
      <trkpt lat="45.65914" lon="6.54561">
        <ele>1501</ele>
        <time>2022-02-12T16:59:34.640Z</time>
      </trkpt>
      <trkpt lat="45.65918" lon="6.54552">
        <ele>1503</ele>
        <time>2022-02-12T17:00:09.031Z</time>
      </trkpt>
      <trkpt lat="45.65881" lon="6.54527">
        <ele>1519</ele>
        <time>2022-02-12T17:02:06.567Z</time>
      </trkpt>
      <trkpt lat="45.65906" lon="6.54519">
        <ele>1520</ele>
        <time>2022-02-12T17:03:10.440Z</time>
      </trkpt>
      <trkpt lat="45.65923" lon="6.54494">
        <ele>1530</ele>
        <time>2022-02-12T17:05:30.911Z</time>
      </trkpt>
      <trkpt lat="45.65888" lon="6.54429">
        <ele>1562</ele>
        <time>2022-02-12T17:10:19.028Z</time>
      </trkpt>
      <trkpt lat="45.65873" lon="6.54453">
        <ele>1562</ele>
        <time>2022-02-12T17:12:25.566Z</time>
      </trkpt>
      <trkpt lat="45.65863" lon="6.54454">
        <ele>1570</ele>
        <time>2022-02-12T17:13:18.647Z</time>
      </trkpt>
      <trkpt lat="45.65868" lon="6.54438">
        <ele>1571</ele>
        <time>2022-02-12T17:14:23.751Z</time>
      </trkpt>
      <trkpt lat="45.65841" lon="6.54376">
        <ele>1607</ele>
        <time>2022-02-12T17:19:35.608Z</time>
      </trkpt>
      <trkpt lat="45.65841" lon="6.54358">
        <ele>1612</ele>
        <time>2022-02-12T17:20:49.550Z</time>
      </trkpt>
      <trkpt lat="45.65834" lon="6.54365">
        <ele>1613</ele>
        <time>2022-02-12T17:21:38.186Z</time>
      </trkpt>
      <trkpt lat="45.65833" lon="6.54356">
        <ele>1614</ele>
        <time>2022-02-12T17:21:57.779Z</time>
      </trkpt>
      <trkpt lat="45.65825" lon="6.54357">
        <ele>1615</ele>
        <time>2022-02-12T17:22:17.549Z</time>
      </trkpt>
      <trkpt lat="45.65827" lon="6.54333">
        <ele>1622</ele>
        <time>2022-02-12T17:23:03.156Z</time>
      </trkpt>
      <trkpt lat="45.65819" lon="6.54328">
        <ele>1623</ele>
        <time>2022-02-12T17:23:28.253Z</time>
      </trkpt>
      <trkpt lat="45.6581" lon="6.54342">
        <ele>1625</ele>
        <time>2022-02-12T17:24:00.693Z</time>
      </trkpt>
      <trkpt lat="45.65818" lon="6.54314">
        <ele>1630</ele>
        <time>2022-02-12T17:25:07.783Z</time>
      </trkpt>
      <trkpt lat="45.6581" lon="6.54319">
        <ele>1630</ele>
        <time>2022-02-12T17:25:37.423Z</time>
      </trkpt>
      <trkpt lat="45.65796" lon="6.54289">
        <ele>1642</ele>
        <time>2022-02-12T17:27:09.974Z</time>
      </trkpt>
      <trkpt lat="45.65807" lon="6.54273">
        <ele>1643</ele>
        <time>2022-02-12T17:28:02.594Z</time>
      </trkpt>
      <trkpt lat="45.65804" lon="6.54263">
        <ele>1646</ele>
        <time>2022-02-12T17:28:20.239Z</time>
      </trkpt>
      <trkpt lat="45.65794" lon="6.5427">
        <ele>1647</ele>
        <time>2022-02-12T17:28:43.138Z</time>
      </trkpt>
      <trkpt lat="45.65787" lon="6.54265">
        <ele>1650</ele>
        <time>2022-02-12T17:29:02.753Z</time>
      </trkpt>
      <trkpt lat="45.65794" lon="6.54242">
        <ele>1653</ele>
        <time>2022-02-12T17:29:52.569Z</time>
      </trkpt>
      <trkpt lat="45.65783" lon="6.54246">
        <ele>1654</ele>
        <time>2022-02-12T17:30:13.159Z</time>
      </trkpt>
      <trkpt lat="45.65775" lon="6.54223">
        <ele>1661</ele>
        <time>2022-02-12T17:30:48.051Z</time>
      </trkpt>
      <trkpt lat="45.65674" lon="6.54231">
        <ele>1671</ele>
        <time>2022-02-12T17:34:17.730Z</time>
      </trkpt>
      <trkpt lat="45.65654" lon="6.54221">
        <ele>1674</ele>
        <time>2022-02-12T17:35:01.839Z</time>
      </trkpt>
      <trkpt lat="45.65663" lon="6.54175">
        <ele>1686</ele>
        <time>2022-02-12T17:36:38.063Z</time>
      </trkpt>
      <trkpt lat="45.65689" lon="6.54155">
        <ele>1690</ele>
        <time>2022-02-12T17:37:41.159Z</time>
      </trkpt>
      <trkpt lat="45.65694" lon="6.54134">
        <ele>1695</ele>
        <time>2022-02-12T17:38:14.567Z</time>
      </trkpt>
      <trkpt lat="45.65669" lon="6.54134">
        <ele>1698</ele>
        <time>2022-02-12T17:39:36.007Z</time>
      </trkpt>
      <trkpt lat="45.65648" lon="6.54104">
        <ele>1711</ele>
        <time>2022-02-12T17:41:38.085Z</time>
      </trkpt>
      <trkpt lat="45.65632" lon="6.54103">
        <ele>1713</ele>
        <time>2022-02-12T17:42:41.677Z</time>
      </trkpt>
      <trkpt lat="45.65591" lon="6.54074">
        <ele>1731</ele>
        <time>2022-02-12T17:46:03.993Z</time>
      </trkpt>
      <trkpt lat="45.65598" lon="6.54063">
        <ele>1734</ele>
        <time>2022-02-12T17:46:48.287Z</time>
      </trkpt>
      <trkpt lat="45.65565" lon="6.54041">
        <ele>1749</ele>
        <time>2022-02-12T17:49:40.986Z</time>
      </trkpt>
      <trkpt lat="45.65553" lon="6.5401">
        <ele>1760</ele>
        <time>2022-02-12T17:51:41.345Z</time>
      </trkpt>
      <trkpt lat="45.6553" lon="6.53991">
        <ele>1771</ele>
        <time>2022-02-12T17:54:07.271Z</time>
      </trkpt>
      <trkpt lat="45.65511" lon="6.53937">
        <ele>1794</ele>
        <time>2022-02-12T17:57:41.424Z</time>
      </trkpt>
      <trkpt lat="45.65477" lon="6.5394">
        <ele>1805</ele>
        <time>2022-02-12T18:00:13.862Z</time>
      </trkpt>
      <trkpt lat="45.65459" lon="6.53913">
        <ele>1818</ele>
        <time>2022-02-12T18:02:15.428Z</time>
      </trkpt>
      <trkpt lat="45.65441" lon="6.53911">
        <ele>1824</ele>
        <time>2022-02-12T18:03:45.063Z</time>
      </trkpt>
      <trkpt lat="45.65439" lon="6.5389">
        <ele>1830</ele>
        <time>2022-02-12T18:04:37.167Z</time>
      </trkpt>
      <trkpt lat="45.65428" lon="6.5388">
        <ele>1836</ele>
        <time>2022-02-12T18:05:26.622Z</time>
      </trkpt>
      <trkpt lat="45.65408" lon="6.53891">
        <ele>1839</ele>
        <time>2022-02-12T18:06:42.566Z</time>
      </trkpt>
      <trkpt lat="45.65391" lon="6.53884">
        <ele>1846</ele>
        <time>2022-02-12T18:07:38.366Z</time>
      </trkpt>
      <trkpt lat="45.65392" lon="6.53874">
        <ele>1849</ele>
        <time>2022-02-12T18:08:09.515Z</time>
      </trkpt>
      <trkpt lat="45.65383" lon="6.53875">
        <ele>1851</ele>
        <time>2022-02-12T18:08:47.819Z</time>
      </trkpt>
      <trkpt lat="45.65387" lon="6.53861">
        <ele>1854</ele>
        <time>2022-02-12T18:09:34.043Z</time>
      </trkpt>
      <trkpt lat="45.65343" lon="6.53837">
        <ele>1875</ele>
        <time>2022-02-12T18:13:15.078Z</time>
      </trkpt>
      <trkpt lat="45.65328" lon="6.53786">
        <ele>1890</ele>
        <time>2022-02-12T18:16:15.616Z</time>
      </trkpt>
      <trkpt lat="45.65289" lon="6.53738">
        <ele>1912</ele>
        <time>2022-02-12T18:20:20.344Z</time>
      </trkpt>
      <trkpt lat="45.65234" lon="6.5371">
        <ele>1937</ele>
        <time>2022-02-12T18:22:56.633Z</time>
      </trkpt>
      <trkpt lat="45.65187" lon="6.53706">
        <ele>1937</ele>
        <time>2022-02-12T18:24:01.729Z</time>
      </trkpt>
      <trkpt lat="45.65087" lon="6.53756">
        <ele>1937</ele>
        <time>2022-02-12T18:26:29.193Z</time>
      </trkpt>
      <trkpt lat="45.64841" lon="6.53703">
        <ele>1939</ele>
        <time>2022-02-12T18:32:15.644Z</time>
      </trkpt>
      <trkpt lat="45.64737" lon="6.53636">
        <ele>1939</ele>
        <time>2022-02-12T18:35:33.253Z</time>
      </trkpt>
      <trkpt lat="45.6467" lon="6.53548">
        <ele>1962</ele>
        <time>2022-02-12T18:41:46.363Z</time>
      </trkpt>
      <trkpt lat="45.64618" lon="6.53459">
        <ele>2002</ele>
        <time>2022-02-12T18:50:15.923Z</time>
      </trkpt>
      <trkpt lat="45.64568" lon="6.53398">
        <ele>2044</ele>
        <time>2022-02-12T18:58:04.142Z</time>
      </trkpt>
      <trkpt lat="45.64523" lon="6.53322">
        <ele>2087</ele>
        <time>2022-02-12T19:04:00.134Z</time>
      </trkpt>
      <trkpt lat="45.6443" lon="6.53224">
        <ele>2129</ele>
        <time>2022-02-12T19:10:51.121Z</time>
      </trkpt>
      <trkpt lat="45.64332" lon="6.53135">
        <ele>2160</ele>
        <time>2022-02-12T19:17:23.739Z</time>
      </trkpt>
      <trkpt lat="45.64249" lon="6.53025">
        <ele>2198</ele>
        <time>2022-02-12T19:22:45.977Z</time>
      </trkpt>
      <trkpt lat="45.64006" lon="6.52723">
        <ele>2270</ele>
        <time>2022-02-12T19:39:42.800Z</time>
      </trkpt>
      <trkpt lat="45.63928" lon="6.52599">
        <ele>2321</ele>
        <time>2022-02-12T19:48:50.919Z</time>
      </trkpt>
      <trkpt lat="45.63829" lon="6.52508">
        <ele>2368</ele>
        <time>2022-02-12T19:56:04.162Z</time>
      </trkpt>
      <trkpt lat="45.63783" lon="6.52455">
        <ele>2379</ele>
        <time>2022-02-12T19:58:26.344Z</time>
      </trkpt>
      <trkpt lat="45.63745" lon="6.52377">
        <ele>2394</ele>
        <time>2022-02-12T20:00:48.113Z</time>
      </trkpt>
      <trkpt lat="45.63717" lon="6.52375">
        <ele>2395</ele>
        <time>2022-02-12T20:02:23.534Z</time>
      </trkpt>
      <trkpt lat="45.63679" lon="6.52374">
        <ele>2414</ele>
        <time>2022-02-12T20:06:04.529Z</time>
      </trkpt>
      <trkpt lat="45.63647" lon="6.52347">
        <ele>2434</ele>
        <time>2022-02-12T20:08:25.667Z</time>
      </trkpt>
      <trkpt lat="45.63606" lon="6.52315">
        <ele>2442</ele>
        <time>2022-02-12T20:09:40.797Z</time>
      </trkpt>
      <trkpt lat="45.63577" lon="6.52349">
        <ele>2442</ele>
        <time>2022-02-12T20:10:33.519Z</time>
      </trkpt>
      <trkpt lat="45.63606" lon="6.52315">
        <ele>2442</ele>
        <time>2022-02-12T20:11:29.063Z</time>
      </trkpt>
      <trkpt lat="45.63647" lon="6.52347">
        <ele>2434</ele>
        <time>2022-02-12T20:13:32.698Z</time>
      </trkpt>
      <trkpt lat="45.63679" lon="6.52374">
        <ele>2414</ele>
        <time>2022-02-12T20:16:07.546Z</time>
      </trkpt>
      <trkpt lat="45.63717" lon="6.52375">
        <ele>2395</ele>
        <time>2022-02-12T20:17:39.691Z</time>
      </trkpt>
      <trkpt lat="45.63745" lon="6.52377">
        <ele>2394</ele>
        <time>2022-02-12T20:18:26.501Z</time>
      </trkpt>
      <trkpt lat="45.63783" lon="6.52455">
        <ele>2379</ele>
        <time>2022-02-12T20:20:29.972Z</time>
      </trkpt>
      <trkpt lat="45.63829" lon="6.52508">
        <ele>2368</ele>
        <time>2022-02-12T20:23:05.888Z</time>
      </trkpt>
      <trkpt lat="45.63928" lon="6.52599">
        <ele>2321</ele>
        <time>2022-02-12T20:29:40.114Z</time>
      </trkpt>
      <trkpt lat="45.64006" lon="6.52723">
        <ele>2270</ele>
        <time>2022-02-12T20:34:01.040Z</time>
      </trkpt>
      <trkpt lat="45.64249" lon="6.53025">
        <ele>2198</ele>
        <time>2022-02-12T20:45:15.320Z</time>
      </trkpt>
      <trkpt lat="45.64332" lon="6.53135">
        <ele>2160</ele>
        <time>2022-02-12T20:49:48.125Z</time>
      </trkpt>
      <trkpt lat="45.6443" lon="6.53224">
        <ele>2129</ele>
        <time>2022-02-12T20:54:39.868Z</time>
      </trkpt>
      <trkpt lat="45.64523" lon="6.53322">
        <ele>2087</ele>
        <time>2022-02-12T21:01:46.718Z</time>
      </trkpt>
      <trkpt lat="45.64568" lon="6.53398">
        <ele>2044</ele>
        <time>2022-02-12T21:07:33.762Z</time>
      </trkpt>
      <trkpt lat="45.64618" lon="6.53459">
        <ele>2002</ele>
        <time>2022-02-12T21:12:27.408Z</time>
      </trkpt>
      <trkpt lat="45.6467" lon="6.53548">
        <ele>1962</ele>
        <time>2022-02-12T21:16:26.085Z</time>
      </trkpt>
      <trkpt lat="45.64737" lon="6.53636">
        <ele>1939</ele>
        <time>2022-02-12T21:18:41.161Z</time>
      </trkpt>
      <trkpt lat="45.64841" lon="6.53703">
        <ele>1939</ele>
        <time>2022-02-12T21:21:18.288Z</time>
      </trkpt>
      <trkpt lat="45.65087" lon="6.53756">
        <ele>1937</ele>
        <time>2022-02-12T21:27:01.280Z</time>
      </trkpt>
      <trkpt lat="45.65187" lon="6.53706">
        <ele>1937</ele>
        <time>2022-02-12T21:29:27.239Z</time>
      </trkpt>
      <trkpt lat="45.65234" lon="6.5371">
        <ele>1937</ele>
        <time>2022-02-12T21:31:01.813Z</time>
      </trkpt>
      <trkpt lat="45.65289" lon="6.53738">
        <ele>1912</ele>
        <time>2022-02-12T21:34:23.784Z</time>
      </trkpt>
      <trkpt lat="45.65328" lon="6.53786">
        <ele>1890</ele>
        <time>2022-02-12T21:37:11.402Z</time>
      </trkpt>
      <trkpt lat="45.65343" lon="6.53837">
        <ele>1875</ele>
        <time>2022-02-12T21:39:22.221Z</time>
      </trkpt>
      <trkpt lat="45.65387" lon="6.53861">
        <ele>1854</ele>
        <time>2022-02-12T21:41:51.788Z</time>
      </trkpt>
      <trkpt lat="45.65383" lon="6.53875">
        <ele>1851</ele>
        <time>2022-02-12T21:42:24.544Z</time>
      </trkpt>
      <trkpt lat="45.65392" lon="6.53874">
        <ele>1849</ele>
        <time>2022-02-12T21:42:51.782Z</time>
      </trkpt>
      <trkpt lat="45.65391" lon="6.53884">
        <ele>1846</ele>
        <time>2022-02-12T21:43:07.253Z</time>
      </trkpt>
      <trkpt lat="45.65408" lon="6.53891">
        <ele>1839</ele>
        <time>2022-02-12T21:43:52.900Z</time>
      </trkpt>
      <trkpt lat="45.65428" lon="6.5388">
        <ele>1836</ele>
        <time>2022-02-12T21:44:47.871Z</time>
      </trkpt>
      <trkpt lat="45.65439" lon="6.5389">
        <ele>1830</ele>
        <time>2022-02-12T21:45:20.945Z</time>
      </trkpt>
      <trkpt lat="45.65441" lon="6.53911">
        <ele>1824</ele>
        <time>2022-02-12T21:46:12.090Z</time>
      </trkpt>
      <trkpt lat="45.65459" lon="6.53913">
        <ele>1818</ele>
        <time>2022-02-12T21:47:15.091Z</time>
      </trkpt>
      <trkpt lat="45.65477" lon="6.5394">
        <ele>1805</ele>
        <time>2022-02-12T21:48:38.691Z</time>
      </trkpt>
      <trkpt lat="45.65511" lon="6.53937">
        <ele>1794</ele>
        <time>2022-02-12T21:50:38.405Z</time>
      </trkpt>
      <trkpt lat="45.6553" lon="6.53991">
        <ele>1771</ele>
        <time>2022-02-12T21:53:26.635Z</time>
      </trkpt>
      <trkpt lat="45.65553" lon="6.5401">
        <ele>1760</ele>
        <time>2022-02-12T21:54:57.047Z</time>
      </trkpt>
      <trkpt lat="45.65565" lon="6.54041">
        <ele>1749</ele>
        <time>2022-02-12T21:56:22.239Z</time>
      </trkpt>
      <trkpt lat="45.65598" lon="6.54063">
        <ele>1734</ele>
        <time>2022-02-12T21:58:14.872Z</time>
      </trkpt>
      <trkpt lat="45.65591" lon="6.54074">
        <ele>1731</ele>
        <time>2022-02-12T21:58:46.370Z</time>
      </trkpt>
      <trkpt lat="45.65632" lon="6.54103">
        <ele>1713</ele>
        <time>2022-02-12T22:00:58.338Z</time>
      </trkpt>
      <trkpt lat="45.65648" lon="6.54104">
        <ele>1711</ele>
        <time>2022-02-12T22:01:43.559Z</time>
      </trkpt>
      <trkpt lat="45.65669" lon="6.54134">
        <ele>1698</ele>
        <time>2022-02-12T22:02:53.646Z</time>
      </trkpt>
      <trkpt lat="45.65694" lon="6.54134">
        <ele>1695</ele>
        <time>2022-02-12T22:03:35.463Z</time>
      </trkpt>
      <trkpt lat="45.65689" lon="6.54155">
        <ele>1690</ele>
        <time>2022-02-12T22:04:01.532Z</time>
      </trkpt>
      <trkpt lat="45.65663" lon="6.54175">
        <ele>1686</ele>
        <time>2022-02-12T22:05:03.131Z</time>
      </trkpt>
      <trkpt lat="45.65654" lon="6.54221">
        <ele>1674</ele>
        <time>2022-02-12T22:05:57.550Z</time>
      </trkpt>
      <trkpt lat="45.65674" lon="6.54231">
        <ele>1671</ele>
        <time>2022-02-12T22:06:32.046Z</time>
      </trkpt>
      <trkpt lat="45.65775" lon="6.54223">
        <ele>1661</ele>
        <time>2022-02-12T22:09:08.104Z</time>
      </trkpt>
      <trkpt lat="45.65783" lon="6.54246">
        <ele>1654</ele>
        <time>2022-02-12T22:09:36.256Z</time>
      </trkpt>
      <trkpt lat="45.65794" lon="6.54242">
        <ele>1653</ele>
        <time>2022-02-12T22:09:58.721Z</time>
      </trkpt>
      <trkpt lat="45.65787" lon="6.54265">
        <ele>1650</ele>
        <time>2022-02-12T22:10:30.305Z</time>
      </trkpt>
      <trkpt lat="45.65794" lon="6.5427">
        <ele>1647</ele>
        <time>2022-02-12T22:10:44.801Z</time>
      </trkpt>
      <trkpt lat="45.65804" lon="6.54263">
        <ele>1646</ele>
        <time>2022-02-12T22:11:02.628Z</time>
      </trkpt>
      <trkpt lat="45.65807" lon="6.54273">
        <ele>1643</ele>
        <time>2022-02-12T22:11:21.438Z</time>
      </trkpt>
      <trkpt lat="45.65796" lon="6.54289">
        <ele>1642</ele>
        <time>2022-02-12T22:12:02.821Z</time>
      </trkpt>
      <trkpt lat="45.6581" lon="6.54319">
        <ele>1630</ele>
        <time>2022-02-12T22:13:04.721Z</time>
      </trkpt>
      <trkpt lat="45.65818" lon="6.54314">
        <ele>1630</ele>
        <time>2022-02-12T22:13:23.686Z</time>
      </trkpt>
      <trkpt lat="45.6581" lon="6.54342">
        <ele>1625</ele>
        <time>2022-02-12T22:14:04.176Z</time>
      </trkpt>
      <trkpt lat="45.65819" lon="6.54328">
        <ele>1623</ele>
        <time>2022-02-12T22:14:31.356Z</time>
      </trkpt>
      <trkpt lat="45.65827" lon="6.54333">
        <ele>1622</ele>
        <time>2022-02-12T22:14:49.389Z</time>
      </trkpt>
      <trkpt lat="45.65825" lon="6.54357">
        <ele>1615</ele>
        <time>2022-02-12T22:15:23.227Z</time>
      </trkpt>
      <trkpt lat="45.65833" lon="6.54356">
        <ele>1614</ele>
        <time>2022-02-12T22:15:41.021Z</time>
      </trkpt>
      <trkpt lat="45.65834" lon="6.54365">
        <ele>1613</ele>
        <time>2022-02-12T22:16:05.311Z</time>
      </trkpt>
      <trkpt lat="45.65841" lon="6.54358">
        <ele>1612</ele>
        <time>2022-02-12T22:16:41.182Z</time>
      </trkpt>
      <trkpt lat="45.65841" lon="6.54376">
        <ele>1607</ele>
        <time>2022-02-12T22:17:37.737Z</time>
      </trkpt>
      <trkpt lat="45.65868" lon="6.54438">
        <ele>1571</ele>
        <time>2022-02-12T22:20:49.371Z</time>
      </trkpt>
      <trkpt lat="45.65863" lon="6.54454">
        <ele>1570</ele>
        <time>2022-02-12T22:21:35.667Z</time>
      </trkpt>
      <trkpt lat="45.65873" lon="6.54453">
        <ele>1562</ele>
        <time>2022-02-12T22:22:15.947Z</time>
      </trkpt>
      <trkpt lat="45.65888" lon="6.54429">
        <ele>1562</ele>
        <time>2022-02-12T22:23:35.467Z</time>
      </trkpt>
      <trkpt lat="45.65923" lon="6.54494">
        <ele>1530</ele>
        <time>2022-02-12T22:27:31.577Z</time>
      </trkpt>
      <trkpt lat="45.65906" lon="6.54519">
        <ele>1520</ele>
        <time>2022-02-12T22:28:18.290Z</time>
      </trkpt>
      <trkpt lat="45.65881" lon="6.54527">
        <ele>1519</ele>
        <time>2022-02-12T22:29:12.374Z</time>
      </trkpt>
      <trkpt lat="45.65918" lon="6.54552">
        <ele>1503</ele>
        <time>2022-02-12T22:31:25.826Z</time>
      </trkpt>
      <trkpt lat="45.65914" lon="6.54561">
        <ele>1501</ele>
        <time>2022-02-12T22:31:50.282Z</time>
      </trkpt>
      <trkpt lat="45.65924" lon="6.5459">
        <ele>1490</ele>
        <time>2022-02-12T22:32:48.051Z</time>
      </trkpt>
      <trkpt lat="45.65938" lon="6.54607">
        <ele>1489</ele>
        <time>2022-02-12T22:33:26.393Z</time>
      </trkpt>
      <trkpt lat="45.65923" lon="6.54611">
        <ele>1483</ele>
        <time>2022-02-12T22:33:49.434Z</time>
      </trkpt>
      <trkpt lat="45.65905" lon="6.54602">
        <ele>1482</ele>
        <time>2022-02-12T22:34:18.032Z</time>
      </trkpt>
      <trkpt lat="45.65912" lon="6.5463">
        <ele>1482</ele>
        <time>2022-02-12T22:34:47.258Z</time>
      </trkpt>
      <trkpt lat="45.65905" lon="6.54648">
        <ele>1480</ele>
        <time>2022-02-12T22:35:07.875Z</time>
      </trkpt>
      <trkpt lat="45.6592" lon="6.54652">
        <ele>1479</ele>
        <time>2022-02-12T22:35:32.157Z</time>
      </trkpt>
      <trkpt lat="45.65911" lon="6.54666">
        <ele>1477</ele>
        <time>2022-02-12T22:35:57.985Z</time>
      </trkpt>
      <trkpt lat="45.65923" lon="6.5468">
        <ele>1473</ele>
        <time>2022-02-12T22:36:35.972Z</time>
      </trkpt>
      <trkpt lat="45.65935" lon="6.54675">
        <ele>1467</ele>
        <time>2022-02-12T22:37:11.751Z</time>
      </trkpt>
      <trkpt lat="45.65933" lon="6.54688">
        <ele>1466</ele>
        <time>2022-02-12T22:37:39.364Z</time>
      </trkpt>
      <trkpt lat="45.65946" lon="6.54686">
        <ele>1459</ele>
        <time>2022-02-12T22:38:13.775Z</time>
      </trkpt>
      <trkpt lat="45.65949" lon="6.54695">
        <ele>1454</ele>
        <time>2022-02-12T22:38:31.967Z</time>
      </trkpt>
      <trkpt lat="45.65957" lon="6.54696">
        <ele>1453</ele>
        <time>2022-02-12T22:38:54.860Z</time>
      </trkpt>
      <trkpt lat="45.65946" lon="6.54719">
        <ele>1449</ele>
        <time>2022-02-12T22:39:34.035Z</time>
      </trkpt>
      <trkpt lat="45.65964" lon="6.54717">
        <ele>1442</ele>
        <time>2022-02-12T22:40:06.192Z</time>
      </trkpt>
      <trkpt lat="45.65971" lon="6.54723">
        <ele>1441</ele>
        <time>2022-02-12T22:40:26.565Z</time>
      </trkpt>
      <trkpt lat="45.65963" lon="6.54736">
        <ele>1440</ele>
        <time>2022-02-12T22:40:54.010Z</time>
      </trkpt>
      <trkpt lat="45.65965" lon="6.54748">
        <ele>1440</ele>
        <time>2022-02-12T22:41:12.829Z</time>
      </trkpt>
      <trkpt lat="45.65988" lon="6.54761">
        <ele>1428</ele>
        <time>2022-02-12T22:42:23.109Z</time>
      </trkpt>
      <trkpt lat="45.66" lon="6.54745">
        <ele>1427</ele>
        <time>2022-02-12T22:42:57.993Z</time>
      </trkpt>
      <trkpt lat="45.66003" lon="6.54767">
        <ele>1420</ele>
        <time>2022-02-12T22:43:21.002Z</time>
      </trkpt>
      <trkpt lat="45.66019" lon="6.54774">
        <ele>1420</ele>
        <time>2022-02-12T22:43:46.442Z</time>
      </trkpt>
      <trkpt lat="45.66" lon="6.54792">
        <ele>1420</ele>
        <time>2022-02-12T22:44:23.640Z</time>
      </trkpt>
      <trkpt lat="45.65986" lon="6.54814">
        <ele>1425</ele>
        <time>2022-02-12T22:44:56.349Z</time>
      </trkpt>
      <trkpt lat="45.65992" lon="6.54819">
        <ele>1425</ele>
        <time>2022-02-12T22:45:08.161Z</time>
      </trkpt>
      <trkpt lat="45.65986" lon="6.54824">
        <ele>1426</ele>
        <time>2022-02-12T22:45:19.339Z</time>
      </trkpt>
      <trkpt lat="45.65995" lon="6.54828">
        <ele>1425</ele>
        <time>2022-02-12T22:45:42.001Z</time>
      </trkpt>
      <trkpt lat="45.65994" lon="6.54839">
        <ele>1424</ele>
        <time>2022-02-12T22:46:04.866Z</time>
      </trkpt>
      <trkpt lat="45.66016" lon="6.54833">
        <ele>1408</ele>
        <time>2022-02-12T22:47:50.971Z</time>
      </trkpt>
      <trkpt lat="45.66058" lon="6.54802">
        <ele>1383</ele>
        <time>2022-02-12T22:50:14.061Z</time>
      </trkpt>
      <trkpt lat="45.66059" lon="6.5484">
        <ele>1380</ele>
        <time>2022-02-12T22:51:13.552Z</time>
      </trkpt>
      <trkpt lat="45.6607" lon="6.54858">
        <ele>1373</ele>
        <time>2022-02-12T22:51:49.546Z</time>
      </trkpt>
      <trkpt lat="45.66087" lon="6.54855">
        <ele>1366</ele>
        <time>2022-02-12T22:52:28.920Z</time>
      </trkpt>
      <trkpt lat="45.66092" lon="6.54867">
        <ele>1365</ele>
        <time>2022-02-12T22:52:45.699Z</time>
      </trkpt>
      <trkpt lat="45.66086" lon="6.54888">
        <ele>1363</ele>
        <time>2022-02-12T22:53:07.310Z</time>
      </trkpt>
      <trkpt lat="45.66097" lon="6.54904">
        <ele>1362</ele>
        <time>2022-02-12T22:53:28.896Z</time>
      </trkpt>
      <trkpt lat="45.66096" lon="6.54934">
        <ele>1363</ele>
        <time>2022-02-12T22:53:58.399Z</time>
      </trkpt>
      <trkpt lat="45.6611" lon="6.54961">
        <ele>1363</ele>
        <time>2022-02-12T22:54:29.917Z</time>
      </trkpt>
      <trkpt lat="45.66115" lon="6.55019">
        <ele>1363</ele>
        <time>2022-02-12T22:55:28.235Z</time>
      </trkpt>
      <trkpt lat="45.66121" lon="6.55038">
        <ele>1363</ele>
        <time>2022-02-12T22:55:49.653Z</time>
      </trkpt>
      <trkpt lat="45.66208" lon="6.55092">
        <ele>1365</ele>
        <time>2022-02-12T22:58:03.852Z</time>
      </trkpt>
      <trkpt lat="45.66233" lon="6.55114">
        <ele>1365</ele>
        <time>2022-02-12T22:58:43.915Z</time>
      </trkpt>
      <trkpt lat="45.66311" lon="6.55119">
        <ele>1365</ele>
        <time>2022-02-12T23:00:39.801Z</time>
      </trkpt>
      <trkpt lat="45.66336" lon="6.5509">
        <ele>1353</ele>
        <time>2022-02-12T23:01:49.596Z</time>
      </trkpt>
      <trkpt lat="45.66346" lon="6.55068">
        <ele>1346</ele>
        <time>2022-02-12T23:02:29.167Z</time>
      </trkpt>
      <trkpt lat="45.66413" lon="6.55004">
        <ele>1330</ele>
        <time>2022-02-12T23:04:53.223Z</time>
      </trkpt>
      <trkpt lat="45.66416" lon="6.54987">
        <ele>1326</ele>
        <time>2022-02-12T23:05:14.469Z</time>
      </trkpt>
      <trkpt lat="45.66388" lon="6.54952">
        <ele>1321</ele>
        <time>2022-02-12T23:06:06.029Z</time>
      </trkpt>
      <trkpt lat="45.66394" lon="6.54944">
        <ele>1319</ele>
        <time>2022-02-12T23:06:17.658Z</time>
      </trkpt>
      <trkpt lat="45.6648" lon="6.54946">
        <ele>1317</ele>
        <time>2022-02-12T23:08:17.328Z</time>
      </trkpt>
    </trkseg>
  </trk>
</gpx>